createdAt,value
2018-09-23T00:01:42.502Z,2.10
2018-09-23T00:04:10.856Z,2.60
2018-09-23T00:06:39.319Z,2.27
2018-09-23T00:09:08.311Z,1.87
2018-09-23T00:11:36.673Z,2.00
2018-09-23T00:14:05.042Z,1.80
2018-09-23T00:16:33.407Z,2.60
2018-09-23T00:19:01.727Z,1.70
2018-09-23T00:21:30.024Z,1.70
2018-09-23T00:23:58.545Z,1.93
2018-09-23T00:26:26.955Z,1.87
2018-09-23T00:28:55.326Z,1.97
2018-09-23T00:31:23.675Z,2.13
2018-09-23T00:33:52.151Z,2.07
2018-09-23T00:36:20.438Z,2.10
2018-09-23T00:38:48.758Z,2.20
2018-09-23T00:41:17.703Z,2.20
2018-09-23T00:43:46.026Z,2.40
2018-09-23T00:46:14.402Z,2.50
2018-09-23T00:48:42.776Z,2.70
2018-09-23T00:51:11.080Z,2.70
2018-09-23T00:53:39.386Z,2.57
2018-09-23T00:56:08.275Z,2.30
2018-09-23T00:58:36.674Z,2.53
2018-09-23T01:01:04.998Z,2.40
2018-09-23T01:03:33.343Z,2.83
2018-09-23T01:06:01.688Z,2.80
2018-09-23T01:08:29.991Z,2.50
2018-09-23T01:10:58.287Z,2.67
2018-09-23T01:13:26.635Z,2.80
2018-09-23T01:15:55.009Z,3.00
2018-09-23T01:18:23.464Z,3.10
2018-09-23T01:20:51.849Z,3.00
2018-09-23T01:23:20.186Z,3.30
2018-09-23T01:25:48.526Z,3.30
2018-09-23T01:28:17.056Z,3.53
2018-09-23T01:30:45.402Z,3.43
2018-09-23T01:33:13.666Z,3.13
2018-09-23T01:35:41.974Z,3.10
2018-09-23T01:38:10.272Z,3.40
2018-09-23T01:40:38.558Z,3.30
2018-09-23T01:43:07.139Z,3.53
2018-09-23T01:45:35.471Z,3.20
2018-09-23T01:48:03.879Z,2.77
2018-09-23T01:50:32.168Z,2.70
2018-09-23T01:53:00.480Z,2.90
2018-09-23T01:55:28.869Z,2.87
2018-09-23T01:57:57.171Z,2.60
2018-09-23T02:00:25.572Z,2.77
2018-09-23T02:02:53.937Z,2.53
2018-09-23T02:05:22.242Z,2.80
2018-09-23T02:07:50.734Z,2.73
2018-09-23T02:10:19.067Z,3.47
2018-09-23T02:12:47.412Z,2.60
2018-09-23T02:15:15.720Z,2.60
2018-09-23T02:17:44.662Z,2.33
2018-09-23T02:20:13.014Z,2.57
2018-09-23T02:22:41.389Z,2.43
2018-09-23T02:25:09.745Z,2.43
2018-09-23T02:27:38.068Z,2.93
2018-09-23T02:30:06.452Z,2.33
2018-09-23T02:32:34.786Z,2.40
2018-09-23T02:35:03.119Z,2.50
2018-09-23T02:37:31.398Z,2.80
2018-09-23T02:39:59.728Z,2.33
2018-09-23T02:42:28.032Z,2.53
2018-09-23T02:44:56.487Z,2.70
2018-09-23T02:47:24.856Z,2.70
2018-09-23T02:49:53.179Z,2.60
2018-09-23T02:52:21.607Z,2.97
2018-09-23T02:54:49.989Z,2.90
2018-09-23T02:57:18.325Z,3.57
2018-09-23T02:59:46.691Z,3.53
2018-09-23T03:02:15.082Z,2.80
2018-09-23T03:04:43.377Z,2.80
2018-09-23T03:07:11.756Z,3.30
2018-09-23T03:09:40.127Z,3.30
2018-09-23T03:12:08.423Z,3.27
2018-09-23T03:14:36.786Z,3.53
2018-09-23T03:17:05.181Z,4.00
2018-09-23T03:19:33.485Z,3.80
2018-09-23T03:22:01.822Z,3.73
2018-09-23T03:24:30.245Z,4.20
2018-09-23T03:26:58.517Z,4.20
2018-09-23T03:29:26.838Z,4.20
2018-09-23T03:31:55.171Z,4.27
2018-09-23T03:34:23.652Z,4.40
2018-09-23T03:36:51.996Z,4.20
2018-09-23T03:39:20.391Z,4.40
2018-09-23T03:41:48.726Z,4.53
2018-09-23T03:44:17.035Z,4.30
2018-09-23T03:46:45.371Z,4.63
2018-09-23T03:49:13.650Z,4.80
2018-09-23T03:51:41.994Z,4.80
2018-09-23T03:54:12.306Z,4.70
2018-09-23T03:56:41.434Z,4.90
2018-09-23T03:59:09.718Z,5.03
2018-09-23T04:01:38.192Z,5.43
2018-09-23T04:04:07.127Z,5.50
2018-09-23T04:06:35.503Z,5.80
2018-09-23T04:09:05.171Z,5.23
2018-09-23T04:11:33.473Z,5.40
2018-09-23T04:14:01.884Z,6.10
2018-09-23T04:16:30.209Z,5.30
2018-09-23T04:18:58.576Z,4.97
2018-09-23T04:21:26.875Z,5.23
2018-09-23T04:23:55.227Z,5.53
2018-09-23T04:26:23.565Z,5.10
2018-09-23T04:28:51.957Z,4.73
2018-09-23T04:31:20.239Z,4.70
2018-09-23T04:33:48.574Z,4.47
2018-09-23T04:36:16.863Z,4.80
2018-09-23T04:38:45.206Z,4.90
2018-09-23T04:41:13.537Z,5.07
2018-09-23T04:43:41.907Z,5.30
2018-09-23T04:46:10.596Z,5.03
2018-09-23T04:48:38.918Z,4.80
2018-09-23T04:51:07.264Z,4.70
2018-09-23T04:53:35.645Z,4.40
2018-09-23T04:56:04.152Z,4.60
2018-09-23T04:58:32.541Z,4.87
2018-09-23T05:01:00.908Z,4.80
2018-09-23T05:03:29.231Z,4.70
2018-09-23T05:05:57.611Z,5.03
2018-09-23T05:08:26.026Z,4.87
2018-09-23T05:10:54.344Z,4.53
2018-09-23T05:13:22.724Z,4.60
2018-09-23T05:15:50.999Z,4.50
2018-09-23T05:18:19.283Z,4.50
2018-09-23T05:20:47.637Z,4.70
2018-09-23T05:23:15.974Z,3.97
2018-09-23T05:25:44.295Z,4.60
2018-09-23T05:28:12.678Z,4.27
2018-09-23T05:30:41.032Z,4.60
2018-09-23T05:33:09.355Z,4.47
2018-09-23T05:35:37.824Z,3.97
2018-09-23T05:38:06.435Z,4.07
2018-09-23T05:40:34.788Z,4.50
2018-09-23T05:43:03.140Z,4.50
2018-09-23T05:45:31.472Z,4.57
2018-09-23T05:47:59.785Z,4.47
2018-09-23T05:50:28.099Z,4.20
2018-09-23T05:52:56.455Z,4.43
2018-09-23T05:55:25.284Z,4.70
2018-09-23T05:57:53.602Z,4.30
2018-09-23T06:00:21.908Z,4.57
2018-09-23T06:02:50.250Z,4.70
2018-09-23T06:05:18.599Z,4.27
2018-09-23T06:07:46.959Z,4.43
2018-09-23T06:10:15.246Z,4.30
2018-09-23T06:12:43.597Z,4.83
2018-09-23T06:15:11.903Z,4.37
2018-09-23T06:17:40.250Z,4.37
2018-09-23T06:20:08.622Z,4.30
2018-09-23T06:22:37.117Z,4.20
2018-09-23T06:25:05.617Z,4.30
2018-09-23T06:27:43.851Z,4.20
2018-09-23T06:30:12.200Z,4.33
2018-09-23T06:32:40.562Z,4.50
2018-09-23T06:35:08.937Z,4.60
2018-09-23T06:37:37.261Z,4.33
2018-09-23T06:40:05.890Z,4.10
2018-09-23T06:42:34.265Z,4.50
2018-09-23T06:45:02.639Z,4.60
2018-09-23T06:47:30.995Z,4.50
2018-09-23T06:49:59.430Z,4.50
2018-09-23T06:52:27.861Z,4.53
2018-09-23T06:54:56.243Z,4.40
2018-09-23T06:57:38.002Z,3.87
2018-09-23T07:00:06.881Z,4.30
2018-09-23T07:02:35.344Z,4.10
2018-09-23T07:05:03.694Z,3.97
2018-09-23T07:07:32.123Z,3.93
2018-09-23T07:10:00.785Z,3.47
2018-09-23T07:12:29.095Z,3.73
2018-09-23T07:14:57.611Z,3.90
2018-09-23T07:17:25.914Z,4.10
2018-09-23T07:19:54.823Z,3.60
2018-09-23T07:22:23.228Z,3.40
2018-09-23T07:24:51.808Z,3.90
2018-09-23T07:27:20.162Z,3.57
2018-09-23T07:29:48.762Z,3.23
2018-09-23T07:32:17.283Z,4.07
2018-09-23T07:34:45.719Z,3.50
2018-09-23T07:37:14.263Z,4.07
2018-09-23T07:39:42.699Z,3.73
2018-09-23T07:42:11.039Z,3.70
2018-09-23T07:44:39.550Z,3.63
2018-09-23T07:47:07.934Z,3.53
2018-09-23T07:49:36.292Z,3.67
2018-09-23T07:52:04.688Z,3.83
2018-09-23T07:54:33.043Z,3.63
2018-09-23T07:57:03.649Z,3.80
2018-09-23T07:59:32.012Z,3.90
2018-09-23T08:02:00.403Z,3.67
2018-09-23T08:04:28.904Z,3.73
2018-09-23T08:06:57.367Z,4.30
2018-09-23T08:09:25.877Z,3.40
2018-09-23T08:11:54.070Z,3.70
2018-09-23T08:14:22.536Z,3.70
2018-09-23T08:16:50.446Z,3.57
2018-09-23T08:19:18.800Z,3.60
2018-09-23T08:21:46.853Z,3.03
2018-09-23T08:24:15.027Z,3.63
2018-09-23T08:26:43.128Z,3.57
2018-09-23T08:29:11.261Z,3.03
2018-09-23T08:31:39.389Z,3.37
2018-09-23T08:34:07.526Z,3.10
2018-09-23T08:36:35.751Z,3.10
2018-09-23T08:39:04.979Z,3.37
2018-09-23T08:41:33.050Z,2.90
2018-09-23T08:44:04.964Z,2.37
2018-09-23T08:46:33.121Z,2.50
2018-09-23T08:49:01.301Z,2.67
2018-09-23T08:51:29.447Z,2.80
2018-09-23T08:53:57.751Z,3.10
2018-09-23T08:56:25.917Z,2.40
2018-09-23T08:58:54.012Z,2.83
2018-09-23T09:01:22.145Z,2.60
2018-09-23T09:03:50.431Z,3.20
2018-09-23T09:06:18.483Z,2.60
2018-09-23T09:08:46.677Z,2.87
2018-09-23T09:11:14.799Z,2.47
2018-09-23T09:13:42.921Z,2.63
2018-09-23T09:16:11.074Z,2.70
2018-09-23T09:18:39.226Z,2.63
2018-09-23T09:21:07.319Z,2.30
2018-09-23T09:23:35.492Z,2.23
2018-09-23T09:26:03.621Z,2.57
2018-09-23T09:28:31.903Z,2.30
2018-09-23T09:31:00.022Z,2.10
2018-09-23T09:33:28.105Z,2.30
2018-09-23T09:35:56.196Z,2.40
2018-09-23T09:38:27.340Z,2.43
2018-09-23T09:40:55.295Z,2.00
2018-09-23T09:43:23.563Z,2.73
2018-09-23T09:45:51.629Z,2.37
2018-09-23T09:48:19.758Z,1.90
2018-09-23T09:50:47.840Z,2.10
2018-09-23T09:53:16.717Z,2.00
2018-09-23T09:55:44.855Z,3.00
2018-09-23T09:58:13.051Z,1.83
2018-09-23T10:00:41.194Z,1.90
2018-09-23T10:03:09.321Z,1.97
2018-09-23T10:05:37.441Z,1.70
2018-09-23T10:08:05.519Z,1.50
2018-09-23T10:10:33.636Z,1.90
2018-09-23T10:13:01.743Z,1.73
2018-09-23T10:15:29.823Z,1.70
2018-09-23T10:17:57.946Z,1.63
2018-09-23T10:20:26.300Z,1.57
2018-09-23T10:22:54.669Z,1.50
2018-09-23T10:25:22.778Z,1.60
2018-09-23T10:27:50.889Z,1.60
2018-09-23T10:30:18.995Z,1.70
2018-09-23T10:32:47.178Z,1.60
2018-09-23T10:35:15.334Z,1.53
2018-09-23T10:37:43.613Z,1.60
2018-09-23T10:40:11.704Z,1.27
2018-09-23T10:42:39.795Z,1.57
2018-09-23T10:45:07.969Z,2.40
2018-09-23T10:47:36.063Z,2.60
2018-09-23T10:50:04.183Z,2.50
2018-09-23T10:52:32.262Z,1.60
2018-09-23T10:55:00.795Z,1.67
2018-09-23T10:57:28.870Z,1.70
2018-09-23T10:59:56.906Z,1.60
2018-09-23T11:02:25.032Z,1.67
2018-09-23T11:04:53.727Z,1.70
2018-09-23T11:07:21.893Z,1.30
2018-09-23T11:09:50.209Z,1.80
2018-09-23T11:12:18.458Z,1.77
2018-09-23T11:14:47.624Z,1.90
2018-09-23T11:17:15.746Z,1.87
2018-09-23T11:19:43.871Z,1.97
2018-09-23T11:22:12.025Z,1.70
2018-09-23T11:24:40.142Z,1.70
2018-09-23T11:27:08.221Z,1.83
2018-09-23T11:29:36.349Z,2.40
2018-09-23T11:32:04.576Z,1.93
2018-09-23T11:34:32.971Z,2.23
2018-09-23T11:37:01.387Z,1.93
2018-09-23T11:39:29.506Z,2.10
2018-09-23T11:41:57.660Z,2.13
2018-09-23T11:44:25.825Z,1.90
2018-09-23T11:46:53.944Z,1.90
2018-09-23T11:49:22.091Z,1.77
2018-09-23T11:51:50.158Z,2.07
2018-09-23T11:54:18.296Z,1.60
2018-09-23T11:56:46.463Z,2.00
2018-09-23T11:59:14.588Z,2.10
2018-09-23T12:01:42.694Z,1.63
2018-09-23T12:04:10.742Z,1.90
2018-09-23T12:06:38.879Z,1.57
2018-09-23T12:09:07.707Z,1.93
2018-09-23T12:11:36.507Z,2.47
2018-09-23T12:14:04.580Z,2.13
2018-09-23T12:16:32.745Z,1.97
2018-09-23T12:19:01.003Z,1.50
2018-09-23T12:21:29.344Z,1.60
2018-09-23T12:23:57.460Z,1.70
2018-09-23T12:26:25.646Z,1.57
2018-09-23T12:28:53.780Z,2.17
2018-09-23T12:31:21.810Z,1.43
2018-09-23T12:33:50.036Z,1.50
2018-09-23T12:36:18.504Z,1.50
2018-09-23T12:38:46.621Z,1.50
2018-09-23T12:41:14.682Z,1.90
2018-09-23T12:43:42.759Z,1.77
2018-09-23T12:46:11.795Z,1.67
2018-09-23T12:48:39.957Z,2.30
2018-09-23T12:51:08.933Z,2.53
2018-09-23T12:53:37.119Z,1.70
2018-09-23T12:56:05.304Z,2.20
2018-09-23T12:58:33.531Z,1.80
2018-09-23T13:01:01.628Z,1.90
2018-09-23T13:03:29.699Z,1.80
2018-09-23T13:05:57.801Z,2.00
2018-09-23T13:08:25.874Z,1.70
2018-09-23T13:10:53.914Z,2.20
2018-09-23T13:13:22.023Z,2.03
2018-09-23T13:15:50.171Z,1.60
2018-09-23T13:18:18.297Z,1.73
2018-09-23T13:20:46.310Z,1.97
2018-09-23T13:23:15.129Z,2.00
2018-09-23T13:25:43.263Z,2.07
2018-09-23T13:28:11.427Z,2.00
2018-09-23T13:30:39.569Z,1.90
2018-09-23T13:33:07.825Z,2.20
2018-09-23T13:35:35.860Z,5.83
2018-09-23T13:38:03.995Z,2.10
2018-09-23T13:40:32.070Z,2.17
2018-09-23T13:43:00.489Z,2.20
2018-09-23T13:45:28.681Z,2.30
2018-09-23T13:47:56.775Z,2.67
2018-09-23T13:50:24.914Z,2.60
2018-09-23T13:52:52.945Z,3.00
2018-09-23T13:55:21.088Z,3.13
2018-09-23T13:57:49.169Z,3.00
2018-09-23T14:00:17.267Z,3.40
2018-09-23T14:02:45.355Z,3.80
2018-09-23T14:05:13.483Z,3.60
2018-09-23T14:07:41.568Z,3.27
2018-09-23T14:10:09.671Z,2.93
2018-09-23T14:12:37.915Z,3.77
2018-09-23T14:15:06.102Z,3.20
2018-09-23T14:17:34.279Z,4.07
2018-09-23T14:20:02.353Z,3.57
2018-09-23T14:22:30.435Z,3.63
2018-09-23T14:24:58.651Z,3.50
2018-09-23T14:27:26.762Z,3.60
2018-09-23T14:29:54.876Z,3.80
2018-09-23T14:32:22.995Z,3.53
2018-09-23T14:34:51.111Z,4.03
2018-09-23T14:37:19.227Z,3.80
2018-09-23T14:39:47.422Z,3.30
2018-09-23T14:42:15.883Z,3.20
2018-09-23T14:44:43.992Z,3.50
2018-09-23T14:47:12.188Z,3.87
2018-09-23T14:49:40.399Z,3.13
2018-09-23T14:52:08.540Z,3.37
2018-09-23T14:54:36.659Z,3.47
2018-09-23T14:57:04.751Z,3.50
2018-09-23T14:59:33.012Z,3.80
2018-09-23T15:02:01.147Z,3.50
2018-09-23T15:04:29.242Z,3.40
2018-09-23T15:06:57.403Z,3.40
2018-09-23T15:09:25.537Z,3.97
2018-09-23T15:11:53.650Z,3.43
2018-09-23T15:14:21.771Z,4.10
2018-09-23T15:16:49.826Z,3.53
2018-09-23T15:19:17.944Z,3.50
2018-09-23T15:21:46.053Z,3.07
2018-09-23T15:24:14.331Z,3.27
2018-09-23T15:26:42.591Z,3.47
2018-09-23T15:29:10.702Z,3.40
2018-09-23T15:31:38.863Z,3.53
2018-09-23T15:34:06.990Z,3.90
2018-09-23T15:36:35.159Z,3.50
2018-09-23T15:39:04.745Z,3.20
2018-09-23T15:41:32.875Z,3.70
2018-09-23T15:44:01.028Z,3.50
2018-09-23T15:46:29.199Z,3.87
2018-09-23T15:48:57.259Z,3.63
2018-09-23T15:51:25.425Z,3.63
2018-09-23T15:53:53.536Z,3.47
2018-09-23T15:56:21.674Z,3.70
2018-09-23T15:58:49.806Z,4.03
2018-09-23T16:01:17.870Z,3.57
2018-09-23T16:03:45.964Z,3.50
2018-09-23T16:06:14.097Z,3.90
2018-09-23T16:08:42.169Z,3.40
2018-09-23T16:11:10.271Z,2.90
2018-09-23T16:13:38.366Z,2.80
2018-09-23T16:16:06.939Z,3.17
2018-09-23T16:18:35.190Z,2.80
2018-09-23T16:21:03.218Z,2.53
2018-09-23T16:23:31.277Z,2.80
2018-09-23T16:25:59.411Z,2.63
2018-09-23T16:28:27.527Z,3.13
2018-09-23T16:30:55.646Z,2.73
2018-09-23T16:33:24.514Z,2.30
2018-09-23T16:35:53.566Z,2.67
2018-09-23T16:38:21.645Z,3.10
2018-09-23T16:40:50.498Z,2.70
2018-09-23T16:43:18.638Z,3.20
2018-09-23T16:45:46.720Z,2.50
2018-09-23T16:48:14.871Z,3.33
2018-09-23T16:50:42.971Z,2.47
2018-09-23T16:53:11.091Z,2.30
2018-09-23T16:55:39.220Z,2.80
2018-09-23T16:58:07.367Z,3.10
2018-09-23T17:00:35.616Z,2.43
2018-09-23T17:03:03.623Z,2.90
2018-09-23T17:05:31.710Z,3.03
2018-09-23T17:07:59.786Z,3.17
2018-09-23T17:10:27.891Z,2.73
2018-09-23T17:12:56.011Z,2.40
2018-09-23T17:15:24.327Z,2.83
2018-09-23T17:17:52.536Z,5.33
2018-09-23T17:20:22.689Z,4.00
2018-09-23T17:22:50.897Z,2.57
2018-09-23T17:25:18.996Z,2.80
2018-09-23T17:27:47.125Z,3.50
2018-09-23T17:30:15.436Z,2.60
2018-09-23T17:32:43.585Z,2.40
2018-09-23T17:35:11.713Z,2.43
2018-09-23T17:37:39.863Z,3.13
2018-09-23T17:40:07.971Z,6.20
2018-09-23T17:42:36.065Z,5.87
2018-09-23T17:45:04.166Z,2.47
2018-09-23T17:47:32.299Z,3.53
2018-09-23T17:50:00.411Z,2.83
2018-09-23T17:52:28.611Z,4.83
2018-09-23T17:54:56.699Z,2.70
2018-09-23T17:57:24.844Z,4.40
2018-09-23T17:59:53.217Z,2.67
2018-09-23T18:02:22.160Z,2.30
2018-09-23T18:04:50.389Z,2.40
2018-09-23T18:07:18.625Z,2.87
2018-09-23T18:09:46.836Z,3.20
2018-09-23T18:15:21.430Z,4.07
2018-09-23T18:17:50.571Z,3.43
2018-09-23T18:20:19.121Z,3.00
2018-09-23T18:22:47.558Z,3.30
2018-09-23T18:25:15.629Z,3.10
2018-09-23T18:27:43.846Z,3.30
2018-09-23T18:30:13.160Z,3.37
2018-09-23T18:32:41.328Z,3.37
2018-09-23T18:35:09.517Z,3.20
2018-09-23T18:37:37.766Z,3.33
2018-09-23T18:40:06.244Z,3.20
2018-09-23T18:42:34.307Z,3.30
2018-09-23T18:45:04.484Z,3.00
2018-09-23T18:47:34.793Z,2.20
2018-09-23T18:50:03.169Z,2.50
2018-09-23T18:52:31.268Z,5.80
2018-09-23T18:55:05.098Z,3.20
2018-09-23T18:57:33.350Z,2.90
2018-09-23T19:00:01.570Z,2.80
2018-09-23T19:02:30.522Z,2.80
2018-09-23T19:04:58.743Z,3.00
2018-09-23T19:07:27.728Z,3.07
2018-09-23T19:09:55.974Z,2.90
2018-09-23T19:12:24.146Z,3.60
2018-09-23T19:14:52.218Z,2.93
2018-09-23T19:17:20.420Z,3.10
2018-09-23T19:19:54.669Z,3.53
2018-09-23T19:22:29.200Z,2.93
2018-09-23T19:24:57.320Z,3.00
2018-09-23T19:27:27.756Z,3.70
2018-09-23T19:29:56.876Z,3.43
2018-09-23T19:32:25.870Z,4.20
2018-09-23T19:34:54.080Z,4.10
2018-09-23T19:37:22.299Z,4.70
2018-09-23T19:39:50.414Z,4.07
2018-09-23T19:42:18.561Z,4.10
2018-09-23T19:44:47.659Z,5.03
2018-09-23T19:47:15.771Z,4.23
2018-09-23T19:49:44.192Z,3.70
2018-09-23T19:52:12.421Z,4.37
2018-09-23T19:54:40.691Z,3.60
2018-09-23T19:57:08.883Z,3.37
2018-09-23T19:59:37.261Z,4.40
2018-09-23T20:02:05.513Z,5.00
2018-09-23T20:04:33.773Z,3.97
2018-09-23T20:07:01.960Z,4.10
2018-09-23T20:09:30.021Z,4.70
2018-09-23T20:11:58.175Z,4.07
2018-09-23T20:14:26.459Z,4.50
2018-09-23T20:16:56.114Z,4.70
2018-09-23T20:19:24.987Z,4.93
2018-09-23T20:21:53.279Z,5.13
2018-09-23T20:24:21.468Z,5.40
2018-09-23T20:26:49.671Z,6.43
2018-09-23T20:29:17.785Z,6.80
2018-09-23T20:31:46.773Z,6.40
2018-09-23T20:34:15.185Z,7.40
2018-09-23T20:36:43.628Z,8.23
2018-09-23T20:39:12.550Z,8.20
2018-09-23T20:41:41.081Z,9.27
2018-09-23T20:44:09.803Z,9.63
2018-09-23T20:46:38.205Z,12.57
2018-09-23T20:49:06.695Z,13.90
2018-09-23T20:51:35.313Z,11.67
2018-09-23T20:54:04.249Z,10.83
2018-09-23T20:56:33.346Z,11.63
2018-09-23T20:59:01.797Z,10.77
2018-09-23T21:01:30.968Z,8.43
2018-09-23T21:04:02.625Z,8.10
2018-09-23T21:06:31.253Z,7.77
2018-09-23T21:08:59.752Z,6.80
2018-09-23T21:11:28.774Z,5.50
2018-09-23T21:13:57.516Z,3.70
2018-09-23T21:16:25.685Z,3.80
2018-09-23T21:18:54.441Z,3.37
2018-09-23T21:21:22.757Z,3.10
2018-09-23T21:23:50.944Z,3.13
2018-09-23T21:26:19.215Z,3.43
2018-09-23T21:28:47.527Z,5.80
2018-09-23T21:31:15.888Z,2.87
2018-09-23T21:33:44.028Z,2.20
2018-09-23T21:36:12.535Z,2.13
2018-09-23T21:38:40.702Z,2.20
2018-09-23T21:41:08.860Z,2.17
2018-09-23T21:43:37.085Z,1.73
2018-09-23T21:46:05.240Z,1.77
2018-09-23T21:48:33.434Z,1.57
2018-09-23T21:51:01.732Z,2.30
2018-09-23T21:53:29.914Z,2.73
2018-09-23T21:55:58.212Z,3.60
2018-09-23T21:58:26.439Z,4.13
2018-09-23T22:00:54.564Z,4.40
2018-09-23T22:03:22.888Z,4.03
2018-09-23T22:05:51.683Z,4.30
2018-09-23T22:08:19.880Z,4.13
2018-09-23T22:10:48.114Z,3.40
2018-09-23T22:13:16.546Z,3.70
2018-09-23T22:15:45.335Z,4.00
2018-09-23T22:18:13.484Z,4.60
2018-09-23T22:20:41.606Z,8.77
2018-09-23T22:23:09.794Z,10.07
2018-09-23T22:25:38.049Z,10.80
2018-09-23T22:28:06.421Z,11.63
2018-09-23T22:30:34.815Z,9.27
2018-09-23T22:33:03.333Z,8.13
2018-09-23T22:35:31.824Z,8.90
2018-09-23T22:38:00.046Z,7.37
2018-09-23T22:40:28.703Z,6.73
2018-09-23T22:42:57.050Z,6.37
2018-09-23T22:45:25.810Z,6.33
2018-09-23T22:47:54.950Z,6.03
2018-09-23T22:50:23.195Z,6.03
2018-09-23T22:52:51.323Z,5.80
2018-09-23T22:55:20.088Z,6.43
2018-09-23T22:57:48.273Z,5.73
2018-09-23T23:00:19.739Z,5.80
2018-09-23T23:02:52.593Z,6.20
2018-09-23T23:05:21.714Z,5.87
2018-09-23T23:07:50.538Z,6.07
2018-09-23T23:10:18.714Z,5.20
2018-09-23T23:12:46.927Z,5.20
2018-09-23T23:15:15.251Z,5.63
2018-09-23T23:17:44.176Z,4.40
2018-09-23T23:20:12.276Z,3.63
2018-09-23T23:22:42.415Z,4.30
2018-09-23T23:25:10.515Z,4.67
2018-09-23T23:27:38.642Z,5.20
2018-09-23T23:30:07.311Z,5.37
2018-09-23T23:32:35.728Z,4.20
2018-09-23T23:35:04.040Z,4.03
2018-09-23T23:37:32.894Z,3.63
2018-09-23T23:40:01.269Z,3.90
2018-09-23T23:42:29.497Z,3.70
2018-09-23T23:44:58.423Z,3.40
2018-09-23T23:47:26.637Z,3.90
2018-09-23T23:49:55.040Z,5.20
2018-09-23T23:52:26.793Z,4.30
2018-09-23T23:54:55.842Z,4.97
2018-09-23T23:57:24.195Z,5.43
2018-09-23T23:59:52.328Z,5.40
